Time;durP1;ratioP1;P1;durP2;ratioP2;P2;SDS_P1;SDS_P2;PMS_P1;PMS_P2;Temp;Humidity;BMP_temperature;BMP_pressure;BME280_temperature;BME280_humidity;BME280_pressure;Samples;Min_cycle;Max_cycle;Signal;HPM_P1;HPM_P2
2022/07/02 00:03:42;;;;;;;3.00;1.90;;;;;;;;;;10313989;28;20050;-57
2022/07/02 00:08:45;;;;;;;3.75;1.88;;;;;;;;;;10323928;28;20197;-57
2022/07/02 00:13:48;;;;;;;5.15;1.90;;;;;;;;;;10328233;28;20085;-57
2022/07/02 00:18:49;;;;;;;3.67;1.77;;;;;;;;;;10308983;28;20037;-57
2022/07/02 00:23:50;;;;;;;2.13;1.70;;;;;;;;;;10324538;28;20182;-57
2022/07/02 00:29:02;;;;;;;3.42;1.75;;;;;;;;;;10313676;28;20038;-57
2022/07/02 00:34:05;;;;;;;1.63;1.48;;;;;;;;;;10327674;28;20120;-57
2022/07/02 00:39:06;;;;;;;2.67;1.73;;;;;;;;;;10311987;28;20113;-57
2022/07/02 00:44:07;;;;;;;2.00;1.50;;;;;;;;;;10317494;28;20433;-57
2022/07/02 00:49:09;;;;;;;3.15;1.60;;;;;;;;;;10316303;28;20410;-57
2022/07/02 00:54:09;;;;;;;2.05;1.58;;;;;;;;;;10321860;28;20509;-57
2022/07/02 00:59:10;;;;;;;2.47;1.90;;;;;;;;;;10300502;28;20035;-57
2022/07/02 01:04:14;;;;;;;2.60;1.48;;;;;;;;;;10299186;28;20026;-57
2022/07/02 01:14:38;;;;;;;3.78;2.05;;;;;;;;;;10296149;28;20441;-57
2022/07/02 01:19:39;;;;;;;1.92;1.67;;;;;;;;;;10307226;28;20033;-57
2022/07/02 01:24:41;;;;;;;2.33;1.75;;;;;;;;;;10309390;28;20037;-56
2022/07/02 01:29:42;;;;;;;2.38;1.80;;;;;;;;;;10315785;28;20093;-57
2022/07/02 01:34:52;;;;;;;2.35;1.50;;;;;;;;;;10319157;28;20049;-57
2022/07/02 01:39:53;;;;;;;2.45;1.70;;;;;;;;;;10326544;28;20026;-57
2022/07/02 01:44:53;;;;;;;3.35;1.77;;;;;;;;;;10321394;28;20069;-56
2022/07/02 01:49:54;;;;;;;1.70;1.30;;;;;;;;;;10316103;28;20038;-57
2022/07/02 01:54:55;;;;;;;2.63;1.30;;;;;;;;;;10319970;28;20039;-56
2022/07/02 01:59:56;;;;;;;2.35;1.63;;;;;;;;;;10300396;28;20033;-57
2022/07/02 02:04:57;;;;;;;2.97;1.70;;;;;;;;;;10286231;28;20379;-57
2022/07/02 02:09:58;;;;;;;3.13;1.70;;;;;;;;;;10300046;28;20031;-57
2022/07/02 02:14:58;;;;;;;1.95;1.40;;;;;;;;;;10304514;28;20023;-57
2022/07/02 02:19:59;;;;;;;1.92;1.42;;;;;;;;;;10315916;28;20049;-58
2022/07/02 02:24:59;;;;;;;2.83;1.35;;;;;;;;;;10324981;28;20055;-57
2022/07/02 02:30:01;;;;;;;2.00;1.70;;;;;;;;;;10317819;28;20023;-57
2022/07/02 02:35:02;;;;;;;2.80;1.60;;;;;;;;;;10319637;28;20046;-57
2022/07/02 02:40:03;;;;;;;2.00;1.30;;;;;;;;;;10312299;28;20036;-57
2022/07/02 02:45:04;;;;;;;1.40;1.25;;;;;;;;;;10308899;28;20101;-57
2022/07/02 02:50:05;;;;;;;2.10;1.50;;;;;;;;;;10310151;28;20475;-57
2022/07/02 02:55:06;;;;;;;1.70;1.50;;;;;;;;;;10314267;28;20359;-57
2022/07/02 03:00:08;;;;;;;1.63;1.52;;;;;;;;;;10316573;28;20118;-56
2022/07/02 03:05:09;;;;;;;2.08;1.70;;;;;;;;;;10316200;28;20113;-57
2022/07/02 03:10:09;;;;;;;2.30;1.63;;;;;;;;;;10314822;28;20027;-57
2022/07/02 03:15:10;;;;;;;2.28;1.50;;;;;;;;;;10312690;28;20601;-57
2022/07/02 03:20:11;;;;;;;2.03;1.48;;;;;;;;;;10309568;28;20039;-57
2022/07/02 03:25:12;;;;;;;2.00;1.30;;;;;;;;;;10302663;28;20102;-57
2022/07/02 03:30:12;;;;;;;1.40;1.30;;;;;;;;;;10324835;28;20022;-57
2022/07/02 03:35:13;;;;;;;2.33;1.60;;;;;;;;;;10331318;28;20438;-56
2022/07/02 03:40:13;;;;;;;2.85;1.65;;;;;;;;;;10332482;28;20085;-58
2022/07/02 03:45:14;;;;;;;2.25;1.27;;;;;;;;;;10328238;28;20030;-57
2022/07/02 03:50:14;;;;;;;3.65;1.63;;;;;;;;;;10325942;28;20033;-57
2022/07/02 03:55:15;;;;;;;2.67;1.60;;;;;;;;;;10324104;28;20031;-58
2022/07/02 04:00:16;;;;;;;1.30;1.20;;;;;;;;;;10324489;28;20026;-57
2022/07/02 04:05:17;;;;;;;2.45;1.52;;;;;;;;;;10327034;28;20410;-57
2022/07/02 04:10:17;;;;;;;1.60;1.30;;;;;;;;;;10327275;28;20127;-57
2022/07/02 04:15:20;;;;;;;1.70;1.25;;;;;;;;;;10327277;28;20097;-57
2022/07/02 04:20:20;;;;;;;3.53;1.58;;;;;;;;;;10327000;28;20505;-57
2022/07/02 04:25:21;;;;;;;1.67;1.20;;;;;;;;;;10325713;28;20202;-58
2022/07/02 04:30:21;;;;;;;1.40;1.30;;;;;;;;;;10324178;28;20033;-56
2022/07/02 04:35:22;;;;;;;1.60;1.33;;;;;;;;;;10329337;28;20046;-57
2022/07/02 04:40:23;;;;;;;2.15;1.60;;;;;;;;;;10328761;28;20117;-58
2022/07/02 04:45:23;;;;;;;2.25;1.33;;;;;;;;;;10328888;28;20033;-56
2022/07/02 04:50:24;;;;;;;1.45;1.30;;;;;;;;;;10327900;28;20150;-56
2022/07/02 04:55:25;;;;;;;2.97;1.55;;;;;;;;;;10328097;28;20105;-57
2022/07/02 05:00:25;;;;;;;2.05;1.30;;;;;;;;;;10328456;28;20056;-56
2022/07/02 05:05:26;;;;;;;1.70;1.17;;;;;;;;;;10327421;28;20045;-57
2022/07/02 05:10:27;;;;;;;2.55;1.50;;;;;;;;;;10323964;28;20030;-57
2022/07/02 05:15:27;;;;;;;1.30;1.20;;;;;;;;;;10306004;28;20113;-57
2022/07/02 05:20:28;;;;;;;1.00;1.00;;;;;;;;;;10306740;28;20027;-57
2022/07/02 05:25:28;;;;;;;2.28;1.30;;;;;;;;;;10326703;28;20509;-57
2022/07/02 05:30:29;;;;;;;1.75;1.25;;;;;;;;;;10316702;28;20374;-56
2022/07/02 05:35:31;;;;;;;2.17;1.20;;;;;;;;;;10326589;28;20072;-57
2022/07/02 05:40:31;;;;;;;2.50;1.40;;;;;;;;;;10326901;28;20034;-57
2022/07/02 05:45:32;;;;;;;3.30;1.63;;;;;;;;;;10315808;28;20022;-57
2022/07/02 05:50:32;;;;;;;6.07;1.63;;;;;;;;;;10326042;28;20504;-57
2022/07/02 05:55:33;;;;;;;3.78;1.75;;;;;;;;;;10308888;28;20360;-57
2022/07/02 06:00:34;;;;;;;4.97;1.50;;;;;;;;;;10321252;28;20207;-57
2022/07/02 06:10:54;;;;;;;6.65;1.90;;;;;;;;;;10314010;28;20109;-56
2022/07/02 06:15:54;;;;;;;3.83;1.75;;;;;;;;;;10314745;28;20031;-56
2022/07/02 06:20:55;;;;;;;11.25;2.03;;;;;;;;;;10314414;28;20042;-56
2022/07/02 06:25:55;;;;;;;5.60;2.00;;;;;;;;;;10314357;28;20038;-56
2022/07/02 06:30:56;;;;;;;15.02;2.72;;;;;;;;;;10319541;28;20046;-56
2022/07/02 06:35:57;;;;;;;12.63;1.85;;;;;;;;;;10325586;28;20474;-56
2022/07/02 06:40:57;;;;;;;6.32;1.60;;;;;;;;;;10325613;28;20042;-56
2022/07/02 06:45:58;;;;;;;8.68;1.60;;;;;;;;;;10325692;28;20019;-55
2022/07/02 06:50:58;;;;;;;8.77;2.17;;;;;;;;;;10325704;28;20045;-56
2022/07/02 06:55:59;;;;;;;9.65;1.85;;;;;;;;;;10324444;28;20026;-56
2022/07/02 07:00:59;;;;;;;6.70;1.83;;;;;;;;;;10330949;28;20620;-56
2022/07/02 07:06:00;;;;;;;6.88;2.00;;;;;;;;;;10332868;28;20340;-56
2022/07/02 07:11:00;;;;;;;6.15;2.42;;;;;;;;;;10331909;28;20441;-56
2022/07/02 07:16:01;;;;;;;7.10;1.80;;;;;;;;;;10331983;28;20026;-56
2022/07/02 07:21:02;;;;;;;12.45;2.08;;;;;;;;;;10331906;28;20065;-56
2022/07/02 07:26:02;;;;;;;5.43;1.75;;;;;;;;;;10322945;28;20045;-56
2022/07/02 07:31:03;;;;;;;11.93;2.10;;;;;;;;;;10323726;28;20478;-57
2022/07/02 07:36:04;;;;;;;11.93;2.50;;;;;;;;;;10331554;28;20033;-56
2022/07/02 07:41:05;;;;;;;11.63;2.05;;;;;;;;;;10330261;28;20030;-54
2022/07/02 07:46:06;;;;;;;4.90;2.22;;;;;;;;;;10319715;28;20027;-56
2022/07/02 07:51:07;;;;;;;7.55;2.20;;;;;;;;;;10306909;28;20381;-57
2022/07/02 07:56:07;;;;;;;10.95;2.08;;;;;;;;;;10318964;28;20026;-55
2022/07/02 08:01:08;;;;;;;5.72;2.33;;;;;;;;;;10318034;28;20053;-56
2022/07/02 08:06:09;;;;;;;8.45;1.88;;;;;;;;;;10319580;28;20039;-56
2022/07/02 08:11:09;;;;;;;4.93;1.92;;;;;;;;;;10317991;28;20034;-57
2022/07/02 08:16:10;;;;;;;6.60;1.80;;;;;;;;;;10322618;28;20019;-55
2022/07/02 08:21:10;;;;;;;7.55;2.15;;;;;;;;;;10319276;28;20579;-55
2022/07/02 08:26:11;;;;;;;15.90;2.53;;;;;;;;;;10324882;28;20137;-56
2022/07/02 08:31:12;;;;;;;13.88;2.53;;;;;;;;;;10324432;28;20019;-55
2022/07/02 08:36:12;;;;;;;5.22;2.13;;;;;;;;;;10328762;28;20370;-56
2022/07/02 08:41:15;;;;;;;13.90;2.42;;;;;;;;;;10302439;28;20037;-56
2022/07/02 08:46:17;;;;;;;6.45;2.38;;;;;;;;;;10317533;28;20050;-56
2022/07/02 08:51:21;;;;;;;11.15;2.35;;;;;;;;;;10327546;28;20027;-56
2022/07/02 08:56:23;;;;;;;8.18;2.22;;;;;;;;;;10328133;28;20030;-56
2022/07/02 09:01:25;;;;;;;10.98;2.20;;;;;;;;;;10306539;28;20042;-56
2022/07/02 09:06:28;;;;;;;10.05;2.45;;;;;;;;;;10327829;28;20033;-56
2022/07/02 09:11:30;;;;;;;10.70;2.30;;;;;;;;;;10326464;28;20030;-56
2022/07/02 09:16:31;;;;;;;7.82;2.17;;;;;;;;;;10317243;28;20041;-54
2022/07/02 09:21:49;;;;;;;10.52;2.50;;;;;;;;;;10306173;28;20026;-56
2022/07/02 09:27:11;;;;;;;7.22;2.70;;;;;;;;;;10319818;28;20054;-56
2022/07/02 09:32:13;;;;;;;8.15;2.42;;;;;;;;;;10321808;28;20034;-56
2022/07/02 09:37:19;;;;;;;13.77;2.95;;;;;;;;;;10326397;28;20030;-56
2022/07/02 09:42:34;;;;;;;26.35;3.90;;;;;;;;;;10325949;28;20077;-56
2022/07/02 09:47:39;;;;;;;21.90;3.40;;;;;;;;;;10327060;28;20496;-56
2022/07/02 09:52:58;;;;;;;15.60;3.45;;;;;;;;;;10327027;28;20065;-56
2022/07/02 09:58:01;;;;;;;12.15;3.13;;;;;;;;;;10326256;28;20032;-56
2022/07/02 10:03:02;;;;;;;23.23;3.22;;;;;;;;;;10326139;28;20034;-56
2022/07/02 10:08:04;;;;;;;18.58;4.20;;;;;;;;;;10325826;28;20378;-56
2022/07/02 10:13:13;;;;;;;18.95;3.85;;;;;;;;;;10312451;28;20453;-56
2022/07/02 10:18:14;;;;;;;22.92;3.50;;;;;;;;;;10326190;28;20361;-56
2022/07/02 10:23:15;;;;;;;15.32;3.53;;;;;;;;;;10311565;28;20250;-55
2022/07/02 10:28:16;;;;;;;12.32;3.20;;;;;;;;;;10318656;28;20205;-56
2022/07/02 10:33:43;;;;;;;12.48;3.33;;;;;;;;;;10319372;28;20085;-55
2022/07/02 10:38:56;;;;;;;15.40;2.90;;;;;;;;;;10324055;28;20182;-56
2022/07/02 10:43:58;;;;;;;13.75;3.85;;;;;;;;;;10324845;28;20034;-56
2022/07/02 10:48:58;;;;;;;7.20;3.00;;;;;;;;;;10323980;28;20026;-56
2022/07/02 10:54:07;;;;;;;9.50;2.13;;;;;;;;;;10325132;28;20031;-56
2022/07/02 10:59:37;;;;;;;11.50;2.83;;;;;;;;;;10325103;28;20113;-56
2022/07/02 11:04:42;;;;;;;7.63;2.85;;;;;;;;;;10325521;28;20069;-55
2022/07/02 11:09:55;;;;;;;12.80;2.72;;;;;;;;;;10312427;28;20026;-56
2022/07/02 11:14:56;;;;;;;10.68;3.05;;;;;;;;;;10312421;28;20478;-56
2022/07/02 11:19:58;;;;;;;9.45;2.72;;;;;;;;;;10324422;28;20026;-56
2022/07/02 11:24:59;;;;;;;16.02;2.67;;;;;;;;;;10321991;28;20078;-56
2022/07/02 11:30:01;;;;;;;11.88;2.97;;;;;;;;;;10324586;28;20034;-56
2022/07/02 11:35:02;;;;;;;9.52;2.83;;;;;;;;;;10313414;28;20464;-56
2022/07/02 11:40:03;;;;;;;7.70;2.50;;;;;;;;;;10313380;28;20488;-56
2022/07/02 11:45:04;;;;;;;9.00;2.38;;;;;;;;;;10311553;28;20033;-55
2022/07/02 11:50:05;;;;;;;8.25;2.63;;;;;;;;;;10323114;28;20037;-56
2022/07/02 11:55:13;;;;;;;7.88;2.13;;;;;;;;;;10324995;28;20109;-56
2022/07/02 12:00:13;;;;;;;;;;;;;;;;;;10326099;28;20070;-56
2022/07/02 12:05:18;;;;;;;8.68;2.70;;;;;;;;;;10325700;28;20399;-55
2022/07/02 12:10:19;;;;;;;5.68;2.30;;;;;;;;;;10327018;28;20026;-56
2022/07/02 12:15:20;;;;;;;7.97;2.65;;;;;;;;;;10323940;28;20030;-56
2022/07/02 12:20:21;;;;;;;6.63;2.35;;;;;;;;;;10322319;28;20030;-55
2022/07/02 12:25:22;;;;;;;10.90;2.67;;;;;;;;;;10315137;28;20553;-56
2022/07/02 12:30:23;;;;;;;4.40;1.98;;;;;;;;;;10320285;28;20025;-56
2022/07/02 12:35:23;;;;;;;5.85;2.38;;;;;;;;;;10323840;28;20415;-55
2022/07/02 12:40:24;;;;;;;6.15;2.28;;;;;;;;;;10329090;28;20040;-55
2022/07/02 12:45:30;;;;;;;5.45;2.20;;;;;;;;;;10318056;28;20030;-56
2022/07/02 12:50:42;;;;;;;7.85;2.33;;;;;;;;;;10319807;28;20508;-56
2022/07/02 12:55:55;;;;;;;8.68;2.33;;;;;;;;;;10324186;28;20470;-55
2022/07/02 13:00:57;;;;;;;4.55;2.25;;;;;;;;;;10322990;28;20057;-56
2022/07/02 13:06:02;;;;;;;4.88;2.35;;;;;;;;;;10321901;28;20076;-56
2022/07/02 13:11:04;;;;;;;5.57;2.28;;;;;;;;;;10327568;28;20126;-55
2022/07/02 13:16:05;;;;;;;3.70;1.90;;;;;;;;;;10320778;28;20042;-56
2022/07/02 13:21:05;;;;;;;3.90;2.20;;;;;;;;;;10320044;28;20034;-56
2022/07/02 13:26:06;;;;;;;5.70;2.00;;;;;;;;;;10323457;28;20042;-55
2022/07/02 13:31:06;;;;;;;5.60;2.03;;;;;;;;;;10316060;28;20023;-56
2022/07/02 13:36:07;;;;;;;3.83;2.00;;;;;;;;;;10326891;28;20042;-56
2022/07/02 13:41:08;;;;;;;5.78;2.10;;;;;;;;;;10326499;28;20034;-56
2022/07/02 13:46:09;;;;;;;4.60;2.00;;;;;;;;;;10324792;28;20054;-55
2022/07/02 13:51:09;;;;;;;3.45;2.13;;;;;;;;;;10325759;28;20050;-56
2022/07/02 13:56:10;;;;;;;5.18;1.88;;;;;;;;;;10326342;28;20019;-55
2022/07/02 14:01:10;;;;;;;5.40;1.88;;;;;;;;;;10326827;28;20394;-55
2022/07/02 14:06:11;;;;;;;5.10;2.05;;;;;;;;;;10325390;28;20391;-55
2022/07/02 14:11:12;;;;;;;3.78;1.77;;;;;;;;;;10324491;28;20027;-55
2022/07/02 14:16:12;;;;;;;4.60;2.05;;;;;;;;;;10324404;28;20359;-55
2022/07/02 14:21:13;;;;;;;5.22;2.08;;;;;;;;;;10325425;28;20023;-56
2022/07/02 14:26:14;;;;;;;4.72;1.83;;;;;;;;;;10320006;28;20038;-55
2022/07/02 14:31:15;;;;;;;3.28;1.70;;;;;;;;;;10314182;28;20026;-56
2022/07/02 14:36:16;;;;;;;4.70;1.77;;;;;;;;;;10324265;28;20532;-56
2022/07/02 14:41:32;;;;;;;4.95;1.92;;;;;;;;;;10324375;28;20030;-56
2022/07/02 14:46:32;;;;;;;4.25;1.85;;;;;;;;;;10324716;28;20458;-56
2022/07/02 14:51:33;;;;;;;4.25;1.60;;;;;;;;;;10323406;28;20026;-55
2022/07/02 14:56:34;;;;;;;2.78;1.58;;;;;;;;;;10323505;28;20026;-56
2022/07/02 15:01:35;;;;;;;4.75;1.60;;;;;;;;;;10324527;28;20039;-56
2022/07/02 15:06:36;;;;;;;3.13;1.73;;;;;;;;;;10323748;28;20031;-56
2022/07/02 15:11:37;;;;;;;5.18;1.95;;;;;;;;;;10325423;28;20031;-55
2022/07/02 15:16:37;;;;;;;4.85;1.70;;;;;;;;;;10323396;28;20038;-56
2022/07/02 15:21:46;;;;;;;4.63;1.80;;;;;;;;;;10314733;28;20062;-55
2022/07/02 15:26:46;;;;;;;4.57;1.80;;;;;;;;;;10324824;28;20050;-55
2022/07/02 15:31:47;;;;;;;4.75;1.60;;;;;;;;;;10324590;28;20022;-56
2022/07/02 15:36:54;;;;;;;2.65;1.48;;;;;;;;;;10327835;28;20026;-55
2022/07/02 15:41:55;;;;;;;3.25;1.75;;;;;;;;;;10325526;28;20848;-56
2022/07/02 15:46:57;;;;;;;8.82;1.80;;;;;;;;;;10328212;28;20033;-56
2022/07/02 15:52:01;;;;;;;4.72;1.70;;;;;;;;;;10328801;28;20038;-56
2022/07/02 15:57:05;;;;;;;2.67;1.50;;;;;;;;;;10327056;28;20037;-56
2022/07/02 16:02:09;;;;;;;5.72;1.50;;;;;;;;;;10326582;28;20046;-56
2022/07/02 16:07:11;;;;;;;3.22;1.67;;;;;;;;;;10330182;28;20168;-56
2022/07/02 16:12:13;;;;;;;3.10;1.83;;;;;;;;;;10329418;28;20046;-56
2022/07/02 16:17:15;;;;;;;3.58;1.60;;;;;;;;;;10328624;28;20022;-56
2022/07/02 16:22:17;;;;;;;2.35;1.30;;;;;;;;;;10315923;28;20027;-56
2022/07/02 16:27:18;;;;;;;1.65;1.50;;;;;;;;;;10320237;28;20043;-55
2022/07/02 16:32:33;;;;;;;3.08;1.60;;;;;;;;;;10312443;28;20459;-56
2022/07/02 16:37:35;;;;;;;5.97;1.70;;;;;;;;;;10295145;28;20019;-56
2022/07/02 16:42:38;;;;;;;3.63;1.80;;;;;;;;;;10315732;28;20114;-56
2022/07/02 16:47:46;;;;;;;3.30;1.40;;;;;;;;;;10316920;28;20023;-56
2022/07/02 16:52:59;;;;;;;3.92;1.40;;;;;;;;;;10327942;28;20429;-56
2022/07/02 16:58:00;;;;;;;2.38;1.33;;;;;;;;;;10304810;28;20093;-56
2022/07/02 17:03:02;;;;;;;2.42;1.30;;;;;;;;;;10327705;28;20030;-56
2022/07/02 17:08:03;;;;;;;3.25;1.40;;;;;;;;;;10326804;28;20061;-56
2022/07/02 17:13:05;;;;;;;1.75;1.40;;;;;;;;;;10292626;28;20104;-56
2022/07/02 17:18:05;;;;;;;4.30;1.50;;;;;;;;;;10304427;28;20031;-56
2022/07/02 17:23:07;;;;;;;3.13;1.48;;;;;;;;;;10296638;28;20034;-56
2022/07/02 17:28:09;;;;;;;2.70;1.45;;;;;;;;;;10315576;28;20053;-56
2022/07/02 17:33:09;;;;;;;4.43;1.30;;;;;;;;;;10319462;28;20035;-56
2022/07/02 17:38:10;;;;;;;2.47;1.48;;;;;;;;;;10325214;28;20035;-56
2022/07/02 17:43:12;;;;;;;4.03;1.70;;;;;;;;;;10311521;28;20031;-55
2022/07/02 17:48:15;;;;;;;12.77;2.20;;;;;;;;;;10306263;28;20030;-55
2022/07/02 17:53:17;;;;;;;19.50;2.22;;;;;;;;;;10305117;28;20253;-56
2022/07/02 17:58:20;;;;;;;7.00;2.17;;;;;;;;;;10301381;28;20030;-55
2022/07/02 18:03:21;;;;;;;7.35;2.20;;;;;;;;;;10316116;28;20033;-56
2022/07/02 18:08:23;;;;;;;6.18;1.98;;;;;;;;;;10294112;28;20037;-55
2022/07/02 18:13:23;;;;;;;9.00;2.17;;;;;;;;;;10297256;28;20049;-54
2022/07/02 18:18:24;;;;;;;3.08;1.88;;;;;;;;;;10300715;28;20117;-56
2022/07/02 18:23:25;;;;;;;5.30;2.17;;;;;;;;;;10302897;28;20042;-55
2022/07/02 18:28:26;;;;;;;7.68;2.40;;;;;;;;;;10300657;28;20112;-55
2022/07/02 18:33:26;;;;;;;6.47;2.83;;;;;;;;;;10320034;28;20039;-56
2022/07/02 18:38:27;;;;;;;8.57;2.58;;;;;;;;;;10311105;28;20362;-56
2022/07/02 18:43:29;;;;;;;8.05;3.15;;;;;;;;;;10307201;28;20033;-55
2022/07/02 18:48:29;;;;;;;14.30;3.00;;;;;;;;;;10306030;28;20034;-55
2022/07/02 18:53:30;;;;;;;10.32;2.30;;;;;;;;;;10321070;28;20026;-56
2022/07/02 18:58:31;;;;;;;6.20;2.60;;;;;;;;;;10322640;28;20049;-56
2022/07/02 19:03:32;;;;;;;7.32;2.50;;;;;;;;;;10316441;28;20037;-56
2022/07/02 19:08:32;;;;;;;9.95;2.65;;;;;;;;;;10314937;28;20390;-55
2022/07/02 19:13:35;;;;;;;5.35;2.55;;;;;;;;;;10301594;28;20037;-55
2022/07/02 19:18:35;;;;;;;7.00;2.35;;;;;;;;;;10315970;28;20385;-55
2022/07/02 19:23:38;;;;;;;14.85;3.05;;;;;;;;;;10324531;28;20029;-55
2022/07/02 19:33:57;;;;;;;7.82;3.10;;;;;;;;;;10304951;28;20066;-56
2022/07/02 19:38:58;;;;;;;10.82;2.85;;;;;;;;;;10321696;28;20034;-56
2022/07/02 19:43:59;;;;;;;6.82;3.05;;;;;;;;;;10322106;28;20046;-56
2022/07/02 19:49:03;;;;;;;52.25;5.47;;;;;;;;;;10330163;28;20038;-56
2022/07/02 19:54:04;;;;;;;43.58;4.55;;;;;;;;;;10328130;28;20034;-56
2022/07/02 19:59:05;;;;;;;18.02;3.72;;;;;;;;;;10305884;28;20035;-56
2022/07/02 20:04:06;;;;;;;27.35;4.22;;;;;;;;;;10296789;28;20482;-56
2022/07/02 20:09:06;;;;;;;14.38;3.42;;;;;;;;;;10297270;28;20031;-57
2022/07/02 20:14:07;;;;;;;23.65;4.20;;;;;;;;;;10316835;28;20027;-56
2022/07/02 20:19:08;;;;;;;16.77;3.50;;;;;;;;;;10301781;28;20034;-56
2022/07/02 20:24:08;;;;;;;14.18;4.22;;;;;;;;;;10319145;28;20042;-56
2022/07/02 20:29:09;;;;;;;16.20;3.72;;;;;;;;;;10300792;28;20026;-56
2022/07/02 20:34:10;;;;;;;13.45;3.83;;;;;;;;;;10299838;28;20455;-56
2022/07/02 20:39:11;;;;;;;11.40;3.25;;;;;;;;;;10305352;28;20035;-57
2022/07/02 20:44:11;;;;;;;18.85;3.80;;;;;;;;;;10306318;28;20038;-56
2022/07/02 20:49:13;;;;;;;9.85;3.35;;;;;;;;;;10294182;28;20034;-56
2022/07/02 20:54:16;;;;;;;13.70;3.38;;;;;;;;;;10310603;28;20097;-56
2022/07/02 20:59:16;;;;;;;8.60;3.42;;;;;;;;;;10293598;28;20441;-56
2022/07/02 21:04:17;;;;;;;8.45;3.53;;;;;;;;;;10301690;28;20105;-56
2022/07/02 21:09:18;;;;;;;7.68;3.45;;;;;;;;;;10293560;28;20034;-56
2022/07/02 21:14:18;;;;;;;12.80;3.72;;;;;;;;;;10313587;28;20470;-56
2022/07/02 21:19:19;;;;;;;7.13;3.70;;;;;;;;;;10327316;28;20042;-56
2022/07/02 21:24:19;;;;;;;10.70;3.72;;;;;;;;;;10313928;28;20038;-56
2022/07/02 21:29:20;;;;;;;17.23;4.03;;;;;;;;;;10313106;28;20033;-55
2022/07/02 21:34:21;;;;;;;9.15;3.55;;;;;;;;;;10310442;28;20371;-56
2022/07/02 21:39:21;;;;;;;9.90;3.75;;;;;;;;;;10308146;28;20034;-56
2022/07/02 21:44:22;;;;;;;10.00;3.83;;;;;;;;;;10294347;28;20045;-56
2022/07/02 21:49:22;;;;;;;11.90;4.35;;;;;;;;;;10294858;28;20480;-56
2022/07/02 21:54:23;;;;;;;14.38;4.40;;;;;;;;;;10303261;28;20367;-56
2022/07/02 21:59:24;;;;;;;11.23;4.25;;;;;;;;;;10300268;28;20038;-56
2022/07/02 22:04:25;;;;;;;13.40;4.18;;;;;;;;;;10301091;28;20114;-56
2022/07/02 22:09:25;;;;;;;10.57;3.53;;;;;;;;;;10297994;28;20033;-56
2022/07/02 22:14:26;;;;;;;10.57;3.58;;;;;;;;;;10311199;28;20023;-56
2022/07/02 22:19:27;;;;;;;6.38;3.50;;;;;;;;;;10321296;28;20225;-56
2022/07/02 22:24:27;;;;;;;9.75;3.83;;;;;;;;;;10319640;28;20411;-57
2022/07/02 22:29:28;;;;;;;12.77;4.28;;;;;;;;;;10320562;28;20037;-56
2022/07/02 22:34:29;;;;;;;7.18;3.80;;;;;;;;;;10325617;28;20065;-56
2022/07/02 22:39:29;;;;;;;8.50;3.80;;;;;;;;;;10301597;28;20138;-57
2022/07/02 22:44:30;;;;;;;12.57;4.00;;;;;;;;;;10313010;28;20081;-56
2022/07/02 22:49:30;;;;;;;14.80;4.93;;;;;;;;;;10300247;28;20030;-56
2022/07/02 22:54:31;;;;;;;8.68;3.97;;;;;;;;;;10297104;28;20033;-56
2022/07/02 22:59:31;;;;;;;5.70;3.47;;;;;;;;;;10323188;28;20026;-56
2022/07/02 23:04:32;;;;;;;7.57;3.83;;;;;;;;;;10307751;28;20034;-56
2022/07/02 23:09:33;;;;;;;9.50;4.40;;;;;;;;;;10313480;28;20031;-56
2022/07/02 23:14:33;;;;;;;6.15;3.50;;;;;;;;;;10309248;28;20046;-55
2022/07/02 23:19:34;;;;;;;6.25;3.10;;;;;;;;;;10323152;28;20031;-55
2022/07/02 23:24:35;;;;;;;8.18;3.95;;;;;;;;;;10300388;28;20053;-55
2022/07/02 23:29:35;;;;;;;7.97;3.58;;;;;;;;;;10311818;28;20027;-55
2022/07/02 23:34:36;;;;;;;5.82;3.75;;;;;;;;;;10320595;28;20022;-53
2022/07/02 23:39:37;;;;;;;8.80;3.42;;;;;;;;;;10311857;28;20033;-54
2022/07/02 23:44:38;;;;;;;7.75;3.50;;;;;;;;;;10325868;28;20084;-54
2022/07/02 23:49:39;;;;;;;9.32;3.58;;;;;;;;;;10331386;28;20528;-55
2022/07/02 23:54:39;;;;;;;8.35;3.25;;;;;;;;;;10322959;28;20378;-55
2022/07/02 23:59:41;;;;;;;7.18;3.55;;;;;;;;;;10326934;28;20115;-55
